createdAt,value
2023-02-05T00:01:56.304Z,40.50
2023-02-05T00:04:24.568Z,40.30
2023-02-05T00:06:52.780Z,40.70
2023-02-05T00:09:20.720Z,40.00
2023-02-05T00:11:48.635Z,41.00
2023-02-05T00:14:16.505Z,41.10
2023-02-05T00:16:45.650Z,40.60
2023-02-05T00:19:13.528Z,41.30
2023-02-05T00:21:41.628Z,41.30
2023-02-05T00:24:09.417Z,41.00
2023-02-05T00:26:37.527Z,41.10
2023-02-05T00:29:05.403Z,41.10
2023-02-05T00:31:33.321Z,41.40
2023-02-05T00:34:02.480Z,41.20
2023-02-05T00:36:30.263Z,41.40
2023-02-05T00:38:58.095Z,41.30
2023-02-05T00:41:26.108Z,41.20
2023-02-05T00:43:54.388Z,41.20
2023-02-05T00:46:22.312Z,41.50
2023-02-05T00:48:50.292Z,41.40
2023-02-05T00:51:19.726Z,41.00
2023-02-05T00:53:47.477Z,41.40
2023-02-05T00:56:15.192Z,41.50
2023-02-05T00:58:47.857Z,41.70
2023-02-05T01:01:15.882Z,41.60
2023-02-05T01:03:44.388Z,41.40
2023-02-05T01:06:12.131Z,41.70
2023-02-05T01:08:41.629Z,41.60
2023-02-05T01:11:11.164Z,41.20
2023-02-05T01:13:38.981Z,41.50
2023-02-05T01:16:07.612Z,40.90
2023-02-05T01:18:35.376Z,41.80
2023-02-05T01:21:03.168Z,42.00
2023-02-05T01:23:30.918Z,41.90
2023-02-05T01:26:00.010Z,41.60
2023-02-05T01:28:27.840Z,41.80
2023-02-05T01:30:55.865Z,42.60
2023-02-05T01:33:23.978Z,42.20
2023-02-05T01:35:52.364Z,42.10
2023-02-05T01:38:20.541Z,42.10
2023-02-05T01:40:48.484Z,41.60
2023-02-05T01:43:18.307Z,41.90
2023-02-05T01:45:52.005Z,42.10
2023-02-05T01:48:22.298Z,42.10
2023-02-05T01:50:51.543Z,42.00
2023-02-05T01:53:20.909Z,41.40
2023-02-05T01:55:51.328Z,41.80
2023-02-05T01:58:20.806Z,42.10
2023-02-05T02:00:48.598Z,42.30
2023-02-05T02:03:16.888Z,42.10
2023-02-05T02:05:44.770Z,42.10
2023-02-05T02:08:13.311Z,42.20
2023-02-05T02:10:41.330Z,42.00
2023-02-05T02:13:09.669Z,42.30
2023-02-05T02:15:39.089Z,42.40
2023-02-05T02:18:21.586Z,42.50
2023-02-05T02:20:49.809Z,42.30
2023-02-05T02:23:22.596Z,42.40
2023-02-05T02:26:00.624Z,43.10
2023-02-05T02:28:31.071Z,42.40
2023-02-05T02:31:02.130Z,42.60
2023-02-05T02:33:33.094Z,42.60
2023-02-05T02:36:02.536Z,42.40
2023-02-05T02:38:33.349Z,42.30
2023-02-05T02:41:02.560Z,42.40
2023-02-05T02:43:33.408Z,42.40
2023-02-05T02:46:02.180Z,42.40
2023-02-05T02:48:30.228Z,42.20
2023-02-05T02:50:58.177Z,42.60
2023-02-05T02:53:28.111Z,42.50
2023-02-05T02:55:56.730Z,42.60
2023-02-05T02:58:27.262Z,42.20
2023-02-05T03:00:57.133Z,41.90
2023-02-05T03:03:25.713Z,42.70
2023-02-05T03:05:54.034Z,42.60
2023-02-05T03:08:23.572Z,42.50
2023-02-05T03:10:54.226Z,42.80
2023-02-05T03:13:21.902Z,42.60
2023-02-05T03:15:49.607Z,42.60
2023-02-05T03:18:18.752Z,42.60
2023-02-05T03:20:48.964Z,41.80
2023-02-05T03:23:16.640Z,42.90
2023-02-05T03:25:44.319Z,42.40
2023-02-05T03:28:12.052Z,42.90
2023-02-05T03:30:44.205Z,42.00
2023-02-05T03:33:20.470Z,42.80
2023-02-05T03:35:50.757Z,42.80
2023-02-05T03:38:27.802Z,42.90
2023-02-05T03:40:57.556Z,42.90
2023-02-05T03:43:32.483Z,42.50
2023-02-05T03:46:02.274Z,42.90
2023-02-05T03:48:38.495Z,42.90
2023-02-05T03:51:14.158Z,42.50
2023-02-05T03:53:45.028Z,42.90
2023-02-05T03:56:14.544Z,43.10
2023-02-05T03:58:43.025Z,43.30
2023-02-05T04:01:11.488Z,42.90
2023-02-05T04:03:41.108Z,43.10
2023-02-05T04:06:09.025Z,43.00
2023-02-05T04:08:36.712Z,43.30
2023-02-05T04:11:04.738Z,42.60
2023-02-05T04:13:32.574Z,43.50
2023-02-05T04:16:00.371Z,42.80
2023-02-05T04:18:28.261Z,43.50
2023-02-05T04:20:59.139Z,43.40
2023-02-05T04:23:27.010Z,43.50
2023-02-05T04:25:55.354Z,43.70
2023-02-05T04:28:23.398Z,43.80
2023-02-05T04:30:51.198Z,43.90
2023-02-05T04:33:18.908Z,44.30
2023-02-05T04:35:47.072Z,44.20
2023-02-05T04:38:16.143Z,43.80
2023-02-05T04:40:44.242Z,44.70
2023-02-05T04:43:12.236Z,44.60
2023-02-05T04:45:41.610Z,44.50
2023-02-05T04:48:09.674Z,44.70
2023-02-05T04:50:38.850Z,44.40
2023-02-05T04:53:06.794Z,44.00
2023-02-05T04:55:36.234Z,45.00
2023-02-05T04:58:04.796Z,45.70
2023-02-05T05:00:32.530Z,45.70
2023-02-05T05:03:00.534Z,45.90
2023-02-05T05:05:28.263Z,45.80
2023-02-05T05:07:56.004Z,46.00
2023-02-05T05:10:23.770Z,46.00
2023-02-05T05:12:53.328Z,46.00
2023-02-05T05:15:21.327Z,45.70
2023-02-05T05:17:49.384Z,45.80
2023-02-05T05:20:17.461Z,45.40
2023-02-05T05:22:45.534Z,45.50
2023-02-05T05:25:13.205Z,46.60
2023-02-05T05:27:40.922Z,46.40
2023-02-05T05:30:11.658Z,46.60
2023-02-05T05:32:39.587Z,46.10
2023-02-05T05:35:08.005Z,47.00
2023-02-05T05:37:36.009Z,47.10
2023-02-05T05:40:35.797Z,47.10
2023-02-05T05:43:20.607Z,46.80
2023-02-05T05:45:49.890Z,46.90
2023-02-05T05:48:17.834Z,47.10
2023-02-05T05:50:47.020Z,47.10
2023-02-05T05:53:15.049Z,47.10
2023-02-05T05:55:43.226Z,46.50
2023-02-05T05:58:10.956Z,46.90
2023-02-05T06:00:39.304Z,47.90
2023-02-05T06:03:08.766Z,47.60
2023-02-05T06:05:37.007Z,47.20
2023-02-05T06:08:05.050Z,47.80
2023-02-05T06:10:33.412Z,47.70
2023-02-05T06:13:01.136Z,47.40
2023-02-05T06:15:28.886Z,47.80
2023-02-05T06:17:56.550Z,47.60
2023-02-05T06:20:28.242Z,47.60
2023-02-05T06:22:56.600Z,47.40
2023-02-05T06:25:24.573Z,47.00
2023-02-05T06:27:52.690Z,47.60
2023-02-05T06:30:20.806Z,48.20
2023-02-05T06:32:48.747Z,48.20
2023-02-05T06:35:16.624Z,47.90
2023-02-05T06:37:47.515Z,47.10
2023-02-05T06:40:18.199Z,47.70
2023-02-05T06:42:46.130Z,48.70
2023-02-05T06:45:13.812Z,48.90
2023-02-05T06:47:42.070Z,48.60
2023-02-05T06:50:10.244Z,48.70
2023-02-05T06:52:38.932Z,48.80
2023-02-05T06:55:08.317Z,48.80
2023-02-05T06:57:36.386Z,48.40
2023-02-05T07:00:05.169Z,48.90
2023-02-05T07:02:32.880Z,49.20
2023-02-05T07:05:00.903Z,48.70
2023-02-05T07:07:28.966Z,48.50
2023-02-05T07:09:57.250Z,48.10
2023-02-05T07:12:26.503Z,48.20
2023-02-05T07:14:54.658Z,48.90
2023-02-05T07:17:22.901Z,48.80
2023-02-05T07:19:50.604Z,48.70
2023-02-05T07:22:18.333Z,48.10
2023-02-05T07:24:46.245Z,48.70
2023-02-05T07:27:14.103Z,49.10
2023-02-05T07:29:43.951Z,48.80
2023-02-05T07:32:11.930Z,49.10
2023-02-05T07:34:40.044Z,48.80
2023-02-05T07:37:07.925Z,48.70
2023-02-05T07:39:35.677Z,49.00
2023-02-05T07:42:03.340Z,49.00
2023-02-05T07:44:31.161Z,49.20
2023-02-05T07:47:00.739Z,49.10
2023-02-05T07:49:28.560Z,48.90
2023-02-05T07:51:56.233Z,49.40
2023-02-05T07:54:24.526Z,49.30
2023-02-05T07:56:52.227Z,49.10
2023-02-05T07:59:19.935Z,49.20
2023-02-05T08:01:47.597Z,49.10
2023-02-05T08:04:16.631Z,49.00
2023-02-05T08:06:44.671Z,49.20
2023-02-05T08:09:14.296Z,49.30
2023-02-05T08:11:42.146Z,49.30
2023-02-05T08:14:10.118Z,49.50
2023-02-05T08:16:38.065Z,49.60
2023-02-05T08:19:06.328Z,49.50
2023-02-05T08:21:35.662Z,49.50
2023-02-05T08:24:03.648Z,49.30
2023-02-05T08:26:31.345Z,49.40
2023-02-05T08:28:59.748Z,49.30
2023-02-05T08:31:27.451Z,49.20
2023-02-05T08:33:56.894Z,49.20
2023-02-05T08:36:24.810Z,49.20
2023-02-05T08:38:54.483Z,49.40
2023-02-05T08:41:22.692Z,49.40
2023-02-05T08:43:51.252Z,49.60
2023-02-05T08:46:20.336Z,49.50
2023-02-05T08:48:48.393Z,49.40
2023-02-05T08:51:16.426Z,49.40
2023-02-05T08:53:44.583Z,49.50
2023-02-05T08:56:14.052Z,49.50
2023-02-05T08:58:41.873Z,49.40
2023-02-05T09:01:10.894Z,49.30
2023-02-05T09:03:38.646Z,49.20
2023-02-05T09:06:06.715Z,49.50
2023-02-05T09:08:34.401Z,49.50
2023-02-05T09:11:02.188Z,49.40
2023-02-05T09:13:31.513Z,49.40
2023-02-05T09:15:59.437Z,49.40
2023-02-05T09:18:27.367Z,49.40
2023-02-05T09:20:55.232Z,49.20
2023-02-05T09:23:22.913Z,49.20
2023-02-05T09:25:50.601Z,49.20
2023-02-05T09:28:18.779Z,49.20
2023-02-05T09:30:48.005Z,49.20
2023-02-05T09:33:15.712Z,49.40
2023-02-05T09:35:43.390Z,49.60
2023-02-05T09:38:12.280Z,49.40
2023-02-05T09:40:43.378Z,49.60
2023-02-05T09:43:22.137Z,49.50
2023-02-05T09:45:56.645Z,49.50
2023-02-05T09:48:49.619Z,49.60
2023-02-05T09:51:18.807Z,49.50
2023-02-05T09:53:48.849Z,49.90
2023-02-05T09:56:16.529Z,49.90
2023-02-05T09:58:46.233Z,50.00
2023-02-05T10:01:20.251Z,50.00
2023-02-05T10:03:49.945Z,50.00
2023-02-05T10:06:28.257Z,50.30
2023-02-05T10:08:59.088Z,50.40
2023-02-05T10:11:29.164Z,50.40
2023-02-05T10:14:02.617Z,50.40
2023-02-05T10:16:50.437Z,50.60
2023-02-05T10:19:43.700Z,50.40
2023-02-05T10:22:15.610Z,50.50
2023-02-05T10:25:09.283Z,50.50
2023-02-05T10:27:40.094Z,50.50
2023-02-05T10:30:12.354Z,50.60
2023-02-05T10:32:46.800Z,50.70
2023-02-05T10:35:22.628Z,50.70
2023-02-05T10:37:52.946Z,50.70
2023-02-05T10:40:22.270Z,50.70
2023-02-05T10:42:53.286Z,50.80
2023-02-05T10:45:22.473Z,51.00
2023-02-05T10:47:57.880Z,50.90
2023-02-05T10:50:28.407Z,51.10
2023-02-05T10:52:56.322Z,51.10
2023-02-05T10:55:24.266Z,51.20
2023-02-05T10:57:52.306Z,51.20
2023-02-05T11:00:21.734Z,51.30
2023-02-05T11:02:51.997Z,51.20
2023-02-05T11:05:23.717Z,51.60
2023-02-05T11:07:52.985Z,51.40
2023-02-05T11:10:21.841Z,51.60
2023-02-05T11:12:50.709Z,51.50
2023-02-05T11:15:24.275Z,51.60
2023-02-05T11:17:55.012Z,51.60
2023-02-05T11:20:29.461Z,51.70
2023-02-05T11:23:08.202Z,51.70
2023-02-05T11:25:36.129Z,51.50
2023-02-05T11:28:05.594Z,51.70
2023-02-05T11:30:55.886Z,51.60
2023-02-05T11:33:32.523Z,51.80
2023-02-05T11:36:02.132Z,51.80
2023-02-05T11:38:37.506Z,51.70
2023-02-05T11:41:07.316Z,51.90
2023-02-05T11:43:36.073Z,51.80
2023-02-05T11:46:07.542Z,51.90
2023-02-05T11:48:40.734Z,51.90
2023-02-05T11:51:10.361Z,51.70
2023-02-05T11:53:38.384Z,51.80
2023-02-05T11:56:09.169Z,51.90
2023-02-05T11:58:37.669Z,52.00
2023-02-05T12:01:07.592Z,51.80
2023-02-05T12:03:37.309Z,51.80
2023-02-05T12:06:12.949Z,56.30
2023-02-05T12:08:46.814Z,54.30
2023-02-05T12:11:24.132Z,55.00
2023-02-05T12:13:57.868Z,55.50
2023-02-05T12:16:36.557Z,57.40
2023-02-05T12:19:11.284Z,57.00
2023-02-05T12:21:44.390Z,56.00
2023-02-05T12:24:48.518Z,55.60
2023-02-05T12:27:24.942Z,54.50
2023-02-05T12:30:02.993Z,54.40
2023-02-05T12:32:35.158Z,54.10
2023-02-05T12:35:14.896Z,53.80
2023-02-05T12:37:45.066Z,53.00
2023-02-05T12:40:30.043Z,52.60
2023-02-05T12:43:00.269Z,52.30
2023-02-05T12:45:36.812Z,52.20
2023-02-05T12:48:40.315Z,51.90
2023-02-05T12:51:20.204Z,51.80
2023-02-05T12:54:10.194Z,51.50
2023-02-05T12:56:50.489Z,51.10
2023-02-05T12:59:20.638Z,51.20
2023-02-05T13:01:49.977Z,51.10
2023-02-05T13:04:23.036Z,51.20
2023-02-05T13:06:54.688Z,50.80
2023-02-05T13:09:24.337Z,50.90
2023-02-05T13:11:56.091Z,50.70
2023-02-05T13:14:25.111Z,50.50
2023-02-05T13:16:55.528Z,50.60
2023-02-05T13:19:26.019Z,50.50
2023-02-05T13:22:13.702Z,50.60
2023-02-05T13:25:00.949Z,50.90
2023-02-05T13:27:47.904Z,50.80
2023-02-05T13:30:17.985Z,50.70
2023-02-05T13:32:45.948Z,50.60
2023-02-05T13:35:14.268Z,50.50
2023-02-05T13:38:01.983Z,50.40
2023-02-05T13:40:55.370Z,50.20
2023-02-05T13:43:45.308Z,50.20
2023-02-05T13:46:49.868Z,50.20
2023-02-05T13:49:50.394Z,50.10
2023-02-05T13:52:28.336Z,50.00
2023-02-05T13:55:16.380Z,49.90
2023-02-05T13:58:09.586Z,50.30
2023-02-05T14:00:38.167Z,50.00
2023-02-05T14:03:09.744Z,50.30
2023-02-05T14:05:39.173Z,50.20
2023-02-05T14:08:07.234Z,50.20
2023-02-05T14:10:37.304Z,50.40
2023-02-05T14:13:13.463Z,50.10
2023-02-05T14:15:41.792Z,49.90
2023-02-05T14:18:11.563Z,49.90
2023-02-05T14:20:40.605Z,50.60
2023-02-05T14:23:15.955Z,50.10
2023-02-05T14:26:12.148Z,50.40
2023-02-05T14:28:48.277Z,50.40
2023-02-05T14:31:51.947Z,50.30
2023-02-05T14:34:50.107Z,50.30
2023-02-05T14:37:36.564Z,50.40
2023-02-05T14:40:24.424Z,50.40
2023-02-05T14:42:57.082Z,50.20
2023-02-05T14:45:30.544Z,50.40
2023-02-05T14:48:01.742Z,50.30
2023-02-05T14:50:30.280Z,50.10
2023-02-05T14:52:59.498Z,49.40
2023-02-05T14:55:29.762Z,49.00
2023-02-05T14:58:03.074Z,49.40
2023-02-05T15:00:33.374Z,50.30
2023-02-05T15:03:27.640Z,50.10
2023-02-05T15:05:58.849Z,50.40
2023-02-05T15:08:40.419Z,50.70
2023-02-05T15:11:12.820Z,50.90
2023-02-05T15:13:42.305Z,51.20
2023-02-05T15:16:21.497Z,51.20
2023-02-05T15:18:50.499Z,51.50
2023-02-05T15:21:21.552Z,51.80
2023-02-05T15:23:51.801Z,51.80
2023-02-05T15:26:22.513Z,52.00
2023-02-05T15:28:57.254Z,52.20
2023-02-05T15:31:30.606Z,52.30
2023-02-05T15:34:01.821Z,52.50
2023-02-05T15:36:33.154Z,52.50
2023-02-05T15:39:10.337Z,52.70
2023-02-05T15:41:39.065Z,53.00
2023-02-05T15:44:20.704Z,53.00
2023-02-05T15:46:48.673Z,53.00
2023-02-05T15:49:16.582Z,53.10
2023-02-05T15:51:44.252Z,53.20
2023-02-05T15:54:18.742Z,53.30
2023-02-05T15:56:48.346Z,53.40
2023-02-05T15:59:20.100Z,53.50
2023-02-05T16:01:48.830Z,53.50
2023-02-05T16:04:20.084Z,53.70
2023-02-05T16:06:48.114Z,53.70
2023-02-05T16:09:18.150Z,53.90
2023-02-05T16:11:46.270Z,53.90
2023-02-05T16:14:14.903Z,53.90
2023-02-05T16:16:45.491Z,54.00
2023-02-05T16:19:16.893Z,54.00
2023-02-05T16:21:46.494Z,53.90
2023-02-05T16:24:18.784Z,54.10
2023-02-05T16:26:47.523Z,54.00
2023-02-05T16:29:25.772Z,54.10
2023-02-05T16:32:05.706Z,54.20
2023-02-05T16:34:33.799Z,54.90
2023-02-05T16:37:03.712Z,54.40
2023-02-05T16:39:35.395Z,54.20
2023-02-05T16:42:05.142Z,54.00
2023-02-05T16:44:34.177Z,54.00
2023-02-05T16:47:14.518Z,54.10
2023-02-05T16:49:43.030Z,53.90
2023-02-05T16:52:27.015Z,54.20
2023-02-05T16:54:55.076Z,54.40
2023-02-05T16:57:29.002Z,54.50
2023-02-05T16:59:58.335Z,54.40
2023-02-05T17:02:30.101Z,54.50
2023-02-05T17:04:58.602Z,54.40
2023-02-05T17:07:26.516Z,54.30
2023-02-05T17:09:54.411Z,54.50
2023-02-05T17:12:40.933Z,54.40
2023-02-05T17:15:33.265Z,54.50
2023-02-05T17:18:06.350Z,54.50
2023-02-05T17:20:34.549Z,54.40
2023-02-05T17:23:09.860Z,54.60
2023-02-05T17:25:38.248Z,54.40
2023-02-05T17:28:06.350Z,54.70
2023-02-05T17:30:34.463Z,54.60
2023-02-05T17:33:06.372Z,54.60
2023-02-05T17:35:34.554Z,54.70
2023-02-05T17:38:02.712Z,55.20
2023-02-05T17:40:30.536Z,54.70
2023-02-05T17:42:59.138Z,54.60
2023-02-05T17:45:27.685Z,54.70
2023-02-05T17:47:55.574Z,54.70
2023-02-05T17:50:25.004Z,54.80
2023-02-05T17:52:54.532Z,54.70
2023-02-05T17:55:22.643Z,54.70
2023-02-05T17:57:50.371Z,54.60
2023-02-05T18:00:19.845Z,54.60
2023-02-05T18:02:47.830Z,54.60
2023-02-05T18:05:15.731Z,54.80
2023-02-05T18:07:46.352Z,54.80
2023-02-05T18:10:15.044Z,54.80
2023-02-05T18:12:42.723Z,54.90
2023-02-05T18:15:11.565Z,54.70
2023-02-05T18:17:39.286Z,54.70
2023-02-05T18:20:07.912Z,54.80
2023-02-05T18:22:35.770Z,54.90
2023-02-05T18:25:05.372Z,54.90
2023-02-05T18:27:33.427Z,54.90
2023-02-05T18:30:01.284Z,54.80
2023-02-05T18:32:29.462Z,54.80
2023-02-05T18:34:57.356Z,54.80
2023-02-05T18:37:26.544Z,55.00
2023-02-05T18:39:54.540Z,54.90
2023-02-05T18:42:24.030Z,54.90
2023-02-05T18:44:53.191Z,54.30
2023-02-05T18:47:21.588Z,53.70
2023-02-05T18:49:49.588Z,54.60
2023-02-05T18:52:18.469Z,54.00
2023-02-05T18:54:46.348Z,53.10
2023-02-05T18:57:14.084Z,52.90
2023-02-05T18:59:44.453Z,53.10
2023-02-05T19:02:12.557Z,52.90
2023-02-05T19:04:41.545Z,53.10
2023-02-05T19:07:09.944Z,53.40
2023-02-05T19:09:37.616Z,53.00
2023-02-05T19:12:06.078Z,52.70
2023-02-05T19:14:33.764Z,52.50
2023-02-05T19:17:03.317Z,51.80
2023-02-05T19:19:31.678Z,52.10
2023-02-05T19:22:01.757Z,52.30
2023-02-05T19:24:30.021Z,52.60
2023-02-05T19:26:59.207Z,52.00
2023-02-05T19:29:27.160Z,51.70
2023-02-05T19:31:57.212Z,52.50
2023-02-05T19:34:27.671Z,51.40
2023-02-05T19:36:55.370Z,52.20
2023-02-05T19:39:23.079Z,52.00
2023-02-05T19:41:51.839Z,52.00
2023-02-05T19:44:19.628Z,51.70
2023-02-05T19:46:48.854Z,51.70
2023-02-05T19:49:17.949Z,52.70
2023-02-05T19:51:47.608Z,52.50
2023-02-05T19:54:15.805Z,52.40
2023-02-05T19:56:44.044Z,52.80
2023-02-05T19:59:11.871Z,52.30
2023-02-05T20:01:40.549Z,51.70
2023-02-05T20:04:09.836Z,51.20
2023-02-05T20:06:38.359Z,50.60
2023-02-05T20:09:10.332Z,50.00
2023-02-05T20:11:38.595Z,50.60
2023-02-05T20:14:06.338Z,51.50
2023-02-05T20:16:34.272Z,51.50
2023-02-05T20:19:03.286Z,51.80
2023-02-05T20:21:31.309Z,52.30
2023-02-05T20:23:59.342Z,52.10
2023-02-05T20:26:28.751Z,51.90
2023-02-05T20:29:15.695Z,51.50
2023-02-05T20:31:46.342Z,51.50
2023-02-05T20:34:18.317Z,52.20
2023-02-05T20:36:46.857Z,52.10
2023-02-05T20:39:17.553Z,52.90
2023-02-05T20:41:46.853Z,52.70
2023-02-05T20:44:14.764Z,52.10
2023-02-05T20:46:43.072Z,51.80
2023-02-05T20:49:10.891Z,51.70
2023-02-05T20:51:39.128Z,50.80
2023-02-05T20:54:07.219Z,52.00
2023-02-05T20:56:35.269Z,51.80
2023-02-05T20:59:05.398Z,52.60
2023-02-05T21:01:33.823Z,51.80
2023-02-05T21:04:02.580Z,51.10
2023-02-05T21:06:31.646Z,50.80
2023-02-05T21:08:59.626Z,50.80
2023-02-05T21:11:28.019Z,51.80
2023-02-05T21:13:55.792Z,52.30
2023-02-05T21:16:25.539Z,52.40
2023-02-05T21:18:53.781Z,51.90
2023-02-05T21:21:22.684Z,51.40
2023-02-05T21:23:53.851Z,51.10
2023-02-05T21:26:22.943Z,51.40
2023-02-05T21:28:53.271Z,51.10
2023-02-05T21:31:21.200Z,50.60
2023-02-05T21:33:50.568Z,50.60
2023-02-05T21:36:19.201Z,50.60
2023-02-05T21:38:47.108Z,50.60
2023-02-05T21:41:15.758Z,50.90
2023-02-05T21:43:43.777Z,51.00
2023-02-05T21:46:13.546Z,51.20
2023-02-05T21:48:41.667Z,51.70
2023-02-05T21:51:12.643Z,51.90
2023-02-05T21:53:40.726Z,52.80
2023-02-05T21:56:11.019Z,52.80
2023-02-05T21:58:39.742Z,52.00
2023-02-05T22:01:12.319Z,51.30
2023-02-05T22:03:40.201Z,52.00
2023-02-05T22:06:08.223Z,52.60
2023-02-05T22:08:37.971Z,53.20
2023-02-05T22:11:06.992Z,53.10
2023-02-05T22:13:35.529Z,52.70
2023-02-05T22:16:05.007Z,52.20
2023-02-05T22:18:33.050Z,51.60
2023-02-05T22:21:05.972Z,51.30
2023-02-05T22:23:33.850Z,51.20
2023-02-05T22:26:06.289Z,52.40
2023-02-05T22:28:34.268Z,52.20
2023-02-05T22:31:02.870Z,52.20
2023-02-05T22:33:31.236Z,52.00
2023-02-05T22:35:59.296Z,51.50
2023-02-05T22:38:27.393Z,51.50
2023-02-05T22:40:55.148Z,51.60
2023-02-05T22:43:24.539Z,52.40
2023-02-05T22:45:52.544Z,52.30
2023-02-05T22:48:20.900Z,52.20
2023-02-05T22:50:48.900Z,52.40
2023-02-05T22:53:17.398Z,52.30
2023-02-05T22:55:45.207Z,52.30
2023-02-05T22:58:13.535Z,52.40
2023-02-05T23:00:42.703Z,52.20
2023-02-05T23:03:10.625Z,52.50
2023-02-05T23:05:38.833Z,52.40
2023-02-05T23:08:07.123Z,51.70
2023-02-05T23:10:35.435Z,51.80
2023-02-05T23:13:03.442Z,52.10
2023-02-05T23:15:31.345Z,51.80
2023-02-05T23:18:00.710Z,51.80
2023-02-05T23:20:29.080Z,52.10
2023-02-05T23:22:57.463Z,51.40
2023-02-05T23:25:25.474Z,51.50
2023-02-05T23:27:53.370Z,51.20
2023-02-05T23:30:21.752Z,51.40
2023-02-05T23:32:49.514Z,51.80
2023-02-05T23:35:19.375Z,51.80
2023-02-05T23:37:47.289Z,52.40
2023-02-05T23:40:15.412Z,52.00
2023-02-05T23:42:49.179Z,51.50
2023-02-05T23:45:17.086Z,51.40
2023-02-05T23:47:44.849Z,51.40
2023-02-05T23:50:12.666Z,50.80
2023-02-05T23:52:41.980Z,51.20
2023-02-05T23:55:09.750Z,52.10
2023-02-05T23:57:37.500Z,52.30
